sensor_id;sensor_type;location;lat;lon;timestamp;P1;durP1;ratioP1;P2;durP2;ratioP2
73515;SDS011;61763;51.416;5.442;2023-11-21T00:01:15;23.83;;;7.95;;
73515;SDS011;61763;51.416;5.442;2023-11-21T00:03:40;27.92;;;10.15;;
73515;SDS011;61763;51.416;5.442;2023-11-21T00:06:06;24.38;;;10.38;;
73515;SDS011;61763;51.416;5.442;2023-11-21T00:08:34;26.40;;;9.05;;
73515;SDS011;61763;51.416;5.442;2023-11-21T00:11:00;27.83;;;10.77;;
73515;SDS011;61763;51.416;5.442;2023-11-21T00:13:26;25.95;;;9.82;;
73515;SDS011;61763;51.416;5.442;2023-11-21T00:15:51;27.98;;;11.90;;
73515;SDS011;61763;51.416;5.442;2023-11-21T00:18:17;27.58;;;9.80;;
73515;SDS011;61763;51.416;5.442;2023-11-21T00:20:42;30.90;;;10.48;;
73515;SDS011;61763;51.416;5.442;2023-11-21T00:23:07;28.80;;;10.43;;
73515;SDS011;61763;51.416;5.442;2023-11-21T00:25:34;31.95;;;11.52;;
73515;SDS011;61763;51.416;5.442;2023-11-21T00:28:00;23.42;;;10.15;;
73515;SDS011;61763;51.416;5.442;2023-11-21T00:30:26;25.73;;;11.75;;
73515;SDS011;61763;51.416;5.442;2023-11-21T00:32:52;31.20;;;10.32;;
73515;SDS011;61763;51.416;5.442;2023-11-21T00:35:18;22.98;;;9.18;;
73515;SDS011;61763;51.416;5.442;2023-11-21T00:37:43;24.60;;;8.70;;
73515;SDS011;61763;51.416;5.442;2023-11-21T00:40:09;22.95;;;9.77;;
73515;SDS011;61763;51.416;5.442;2023-11-21T00:42:40;20.10;;;7.65;;
73515;SDS011;61763;51.416;5.442;2023-11-21T00:45:06;26.17;;;10.48;;
73515;SDS011;61763;51.416;5.442;2023-11-21T00:47:31;26.85;;;9.93;;
73515;SDS011;61763;51.416;5.442;2023-11-21T00:49:57;28.45;;;10.48;;
73515;SDS011;61763;51.416;5.442;2023-11-21T00:52:23;28.65;;;9.15;;
73515;SDS011;61763;51.416;5.442;2023-11-21T00:54:49;33.00;;;11.88;;
73515;SDS011;61763;51.416;5.442;2023-11-21T00:57:14;29.52;;;9.88;;
73515;SDS011;61763;51.416;5.442;2023-11-21T00:59:40;24.50;;;8.85;;
73515;SDS011;61763;51.416;5.442;2023-11-21T01:02:07;22.65;;;8.98;;
73515;SDS011;61763;51.416;5.442;2023-11-21T01:04:35;22.25;;;9.38;;
73515;SDS011;61763;51.416;5.442;2023-11-21T01:07:00;26.10;;;8.73;;
73515;SDS011;61763;51.416;5.442;2023-11-21T01:09:27;24.60;;;9.30;;
73515;SDS011;61763;51.416;5.442;2023-11-21T01:11:53;22.70;;;8.98;;
73515;SDS011;61763;51.416;5.442;2023-11-21T01:14:18;19.85;;;9.10;;
73515;SDS011;61763;51.416;5.442;2023-11-21T01:16:44;20.00;;;9.80;;
73515;SDS011;61763;51.416;5.442;2023-11-21T01:19:09;19.83;;;8.48;;
73515;SDS011;61763;51.416;5.442;2023-11-21T01:21:36;21.30;;;8.93;;
73515;SDS011;61763;51.416;5.442;2023-11-21T01:24:01;24.35;;;10.38;;
73515;SDS011;61763;51.416;5.442;2023-11-21T01:26:27;22.92;;;8.48;;
73515;SDS011;61763;51.416;5.442;2023-11-21T01:28:53;18.13;;;8.23;;
73515;SDS011;61763;51.416;5.442;2023-11-21T01:31:19;22.35;;;8.35;;
73515;SDS011;61763;51.416;5.442;2023-11-21T01:33:45;23.00;;;8.80;;
73515;SDS011;61763;51.416;5.442;2023-11-21T01:36:10;18.42;;;8.55;;
73515;SDS011;61763;51.416;5.442;2023-11-21T01:38:36;17.60;;;7.57;;
73515;SDS011;61763;51.416;5.442;2023-11-21T01:41:01;25.83;;;8.30;;
73515;SDS011;61763;51.416;5.442;2023-11-21T01:43:29;23.95;;;9.90;;
73515;SDS011;61763;51.416;5.442;2023-11-21T01:45:57;23.60;;;8.95;;
73515;SDS011;61763;51.416;5.442;2023-11-21T01:48:23;22.67;;;9.05;;
73515;SDS011;61763;51.416;5.442;2023-11-21T01:50:50;25.17;;;8.52;;
73515;SDS011;61763;51.416;5.442;2023-11-21T01:53:16;23.40;;;9.82;;
73515;SDS011;61763;51.416;5.442;2023-11-21T01:55:41;23.30;;;8.70;;
73515;SDS011;61763;51.416;5.442;2023-11-21T01:58:08;21.27;;;9.68;;
73515;SDS011;61763;51.416;5.442;2023-11-21T02:00:37;27.67;;;9.45;;
73515;SDS011;61763;51.416;5.442;2023-11-21T02:03:04;26.15;;;11.05;;
73515;SDS011;61763;51.416;5.442;2023-11-21T02:05:31;27.85;;;10.70;;
73515;SDS011;61763;51.416;5.442;2023-11-21T02:07:57;26.65;;;11.35;;
73515;SDS011;61763;51.416;5.442;2023-11-21T02:10:22;29.05;;;11.48;;
73515;SDS011;61763;51.416;5.442;2023-11-21T02:12:48;34.85;;;12.82;;
73515;SDS011;61763;51.416;5.442;2023-11-21T02:15:17;49.85;;;16.00;;
73515;SDS011;61763;51.416;5.442;2023-11-21T02:17:47;37.95;;;12.82;;
73515;SDS011;61763;51.416;5.442;2023-11-21T02:20:16;47.92;;;14.50;;
73515;SDS011;61763;51.416;5.442;2023-11-21T02:22:43;68.90;;;15.95;;
73515;SDS011;61763;51.416;5.442;2023-11-21T02:25:10;111.43;;;18.00;;
73515;SDS011;61763;51.416;5.442;2023-11-21T02:27:36;115.88;;;16.95;;
73515;SDS011;61763;51.416;5.442;2023-11-21T02:30:02;59.25;;;15.85;;
73515;SDS011;61763;51.416;5.442;2023-11-21T02:32:30;58.25;;;17.15;;
73515;SDS011;61763;51.416;5.442;2023-11-21T02:34:56;80.85;;;18.42;;
73515;SDS011;61763;51.416;5.442;2023-11-21T02:37:25;95.18;;;19.70;;
73515;SDS011;61763;51.416;5.442;2023-11-21T02:39:52;82.60;;;18.90;;
73515;SDS011;61763;51.416;5.442;2023-11-21T02:42:18;45.78;;;15.02;;
73515;SDS011;61763;51.416;5.442;2023-11-21T02:44:44;110.13;;;20.25;;
73515;SDS011;61763;51.416;5.442;2023-11-21T02:47:10;110.18;;;18.55;;
73515;SDS011;61763;51.416;5.442;2023-11-21T02:49:36;52.78;;;14.27;;
73515;SDS011;61763;51.416;5.442;2023-11-21T02:52:01;43.95;;;14.60;;
73515;SDS011;61763;51.416;5.442;2023-11-21T02:54:28;49.67;;;17.65;;
73515;SDS011;61763;51.416;5.442;2023-11-21T02:56:53;63.55;;;15.25;;
73515;SDS011;61763;51.416;5.442;2023-11-21T02:59:19;55.80;;;15.10;;
73515;SDS011;61763;51.416;5.442;2023-11-21T03:01:45;56.00;;;15.95;;
73515;SDS011;61763;51.416;5.442;2023-11-21T03:04:11;59.40;;;16.63;;
73515;SDS011;61763;51.416;5.442;2023-11-21T03:06:42;113.82;;;18.23;;
73515;SDS011;61763;51.416;5.442;2023-11-21T03:09:08;41.28;;;16.58;;
73515;SDS011;61763;51.416;5.442;2023-11-21T03:11:33;89.28;;;16.08;;
73515;SDS011;61763;51.416;5.442;2023-11-21T03:13:58;86.82;;;16.27;;
73515;SDS011;61763;51.416;5.442;2023-11-21T03:16:25;40.08;;;13.23;;
73515;SDS011;61763;51.416;5.442;2023-11-21T03:18:51;39.70;;;14.07;;
73515;SDS011;61763;51.416;5.442;2023-11-21T03:23:44;56.55;;;13.43;;
73515;SDS011;61763;51.416;5.442;2023-11-21T03:26:11;75.03;;;16.98;;
73515;SDS011;61763;51.416;5.442;2023-11-21T03:28:37;42.78;;;14.93;;
73515;SDS011;61763;51.416;5.442;2023-11-21T03:31:03;76.35;;;17.05;;
73515;SDS011;61763;51.416;5.442;2023-11-21T03:33:29;73.78;;;15.10;;
73515;SDS011;61763;51.416;5.442;2023-11-21T03:35:54;45.38;;;13.55;;
73515;SDS011;61763;51.416;5.442;2023-11-21T03:38:20;105.25;;;17.33;;
73515;SDS011;61763;51.416;5.442;2023-11-21T03:40:45;64.35;;;14.48;;
73515;SDS011;61763;51.416;5.442;2023-11-21T03:43:12;52.90;;;13.85;;
73515;SDS011;61763;51.416;5.442;2023-11-21T03:45:37;58.70;;;16.70;;
73515;SDS011;61763;51.416;5.442;2023-11-21T03:48:02;51.58;;;13.80;;
73515;SDS011;61763;51.416;5.442;2023-11-21T03:50:29;36.85;;;12.85;;
73515;SDS011;61763;51.416;5.442;2023-11-21T03:52:55;32.15;;;12.85;;
73515;SDS011;61763;51.416;5.442;2023-11-21T03:55:20;79.50;;;15.10;;
73515;SDS011;61763;51.416;5.442;2023-11-21T03:57:45;37.70;;;13.23;;
73515;SDS011;61763;51.416;5.442;2023-11-21T04:00:11;59.78;;;15.40;;
73515;SDS011;61763;51.416;5.442;2023-11-21T04:02:37;39.58;;;12.07;;
73515;SDS011;61763;51.416;5.442;2023-11-21T04:05:07;60.25;;;14.52;;
73515;SDS011;61763;51.416;5.442;2023-11-21T04:07:32;49.08;;;12.35;;
73515;SDS011;61763;51.416;5.442;2023-11-21T04:09:59;66.28;;;12.15;;
73515;SDS011;61763;51.416;5.442;2023-11-21T04:12:24;65.13;;;13.65;;
73515;SDS011;61763;51.416;5.442;2023-11-21T04:14:49;55.85;;;15.13;;
73515;SDS011;61763;51.416;5.442;2023-11-21T04:17:17;57.30;;;13.07;;
73515;SDS011;61763;51.416;5.442;2023-11-21T04:19:44;68.55;;;13.80;;
73515;SDS011;61763;51.416;5.442;2023-11-21T04:22:10;39.20;;;13.20;;
73515;SDS011;61763;51.416;5.442;2023-11-21T04:24:35;66.70;;;14.60;;
73515;SDS011;61763;51.416;5.442;2023-11-21T04:27:01;38.95;;;11.32;;
73515;SDS011;61763;51.416;5.442;2023-11-21T04:29:27;80.90;;;14.38;;
73515;SDS011;61763;51.416;5.442;2023-11-21T04:31:53;45.53;;;12.90;;
73515;SDS011;61763;51.416;5.442;2023-11-21T04:34:18;43.87;;;11.50;;
73515;SDS011;61763;51.416;5.442;2023-11-21T04:36:43;28.48;;;11.13;;
73515;SDS011;61763;51.416;5.442;2023-11-21T04:39:10;39.90;;;11.43;;
73515;SDS011;61763;51.416;5.442;2023-11-21T04:41:36;41.95;;;12.27;;
73515;SDS011;61763;51.416;5.442;2023-11-21T04:44:04;49.47;;;11.52;;
73515;SDS011;61763;51.416;5.442;2023-11-21T04:46:31;59.13;;;14.15;;
73515;SDS011;61763;51.416;5.442;2023-11-21T04:48:57;32.83;;;12.05;;
73515;SDS011;61763;51.416;5.442;2023-11-21T04:51:23;49.63;;;12.68;;
73515;SDS011;61763;51.416;5.442;2023-11-21T04:53:48;47.05;;;11.48;;
73515;SDS011;61763;51.416;5.442;2023-11-21T04:56:13;41.90;;;11.60;;
73515;SDS011;61763;51.416;5.442;2023-11-21T04:58:40;45.33;;;12.77;;
73515;SDS011;61763;51.416;5.442;2023-11-21T05:01:07;38.05;;;14.18;;
73515;SDS011;61763;51.416;5.442;2023-11-21T05:03:33;42.35;;;13.05;;
73515;SDS011;61763;51.416;5.442;2023-11-21T05:05:59;34.15;;;12.23;;
73515;SDS011;61763;51.416;5.442;2023-11-21T05:08:24;33.63;;;11.88;;
73515;SDS011;61763;51.416;5.442;2023-11-21T05:10:51;34.30;;;12.07;;
73515;SDS011;61763;51.416;5.442;2023-11-21T05:13:17;31.60;;;11.43;;
73515;SDS011;61763;51.416;5.442;2023-11-21T05:15:43;36.45;;;12.05;;
73515;SDS011;61763;51.416;5.442;2023-11-21T05:18:09;32.85;;;12.30;;
73515;SDS011;61763;51.416;5.442;2023-11-21T05:20:35;36.47;;;14.60;;
73515;SDS011;61763;51.416;5.442;2023-11-21T05:23:02;32.47;;;13.70;;
73515;SDS011;61763;51.416;5.442;2023-11-21T05:25:27;30.95;;;12.30;;
73515;SDS011;61763;51.416;5.442;2023-11-21T05:27:53;32.58;;;10.93;;
73515;SDS011;61763;51.416;5.442;2023-11-21T05:30:21;31.98;;;13.10;;
73515;SDS011;61763;51.416;5.442;2023-11-21T05:32:47;29.95;;;10.40;;
73515;SDS011;61763;51.416;5.442;2023-11-21T05:35:12;39.13;;;11.43;;
73515;SDS011;61763;51.416;5.442;2023-11-21T05:37:42;28.98;;;11.10;;
73515;SDS011;61763;51.416;5.442;2023-11-21T05:40:07;26.65;;;10.07;;
73515;SDS011;61763;51.416;5.442;2023-11-21T05:42:34;30.13;;;11.48;;
73515;SDS011;61763;51.416;5.442;2023-11-21T05:45:00;28.80;;;12.40;;
73515;SDS011;61763;51.416;5.442;2023-11-21T05:47:40;24.23;;;11.07;;
73515;SDS011;61763;51.416;5.442;2023-11-21T05:50:10;30.10;;;10.60;;
73515;SDS011;61763;51.416;5.442;2023-11-21T05:52:37;27.55;;;13.23;;
73515;SDS011;61763;51.416;5.442;2023-11-21T05:55:04;25.75;;;12.07;;
73515;SDS011;61763;51.416;5.442;2023-11-21T05:59:57;24.80;;;10.65;;
73515;SDS011;61763;51.416;5.442;2023-11-21T06:02:23;21.73;;;9.25;;
73515;SDS011;61763;51.416;5.442;2023-11-21T06:04:48;26.00;;;12.50;;
73515;SDS011;61763;51.416;5.442;2023-11-21T06:07:15;23.80;;;10.82;;
73515;SDS011;61763;51.416;5.442;2023-11-21T06:09:40;26.17;;;10.30;;
73515;SDS011;61763;51.416;5.442;2023-11-21T06:12:06;29.38;;;11.82;;
73515;SDS011;61763;51.416;5.442;2023-11-21T06:14:31;26.83;;;12.23;;
73515;SDS011;61763;51.416;5.442;2023-11-21T06:17:00;30.75;;;12.45;;
73515;SDS011;61763;51.416;5.442;2023-11-21T06:19:25;29.65;;;12.15;;
73515;SDS011;61763;51.416;5.442;2023-11-21T06:21:51;32.33;;;12.43;;
73515;SDS011;61763;51.416;5.442;2023-11-21T06:24:16;25.58;;;11.90;;
73515;SDS011;61763;51.416;5.442;2023-11-21T06:26:42;26.55;;;11.05;;
73515;SDS011;61763;51.416;5.442;2023-11-21T06:29:09;34.10;;;12.23;;
73515;SDS011;61763;51.416;5.442;2023-11-21T06:31:34;27.33;;;11.27;;
73515;SDS011;61763;51.416;5.442;2023-11-21T06:34:00;25.02;;;10.15;;
73515;SDS011;61763;51.416;5.442;2023-11-21T06:36:25;27.13;;;11.90;;
73515;SDS011;61763;51.416;5.442;2023-11-21T06:38:51;34.55;;;13.27;;
73515;SDS011;61763;51.416;5.442;2023-11-21T06:41:17;29.75;;;12.48;;
73515;SDS011;61763;51.416;5.442;2023-11-21T06:43:42;26.27;;;11.13;;
73515;SDS011;61763;51.416;5.442;2023-11-21T06:46:12;30.23;;;13.50;;
73515;SDS011;61763;51.416;5.442;2023-11-21T06:48:39;36.83;;;14.63;;
73515;SDS011;61763;51.416;5.442;2023-11-21T06:53:32;31.85;;;11.43;;
73515;SDS011;61763;51.416;5.442;2023-11-21T06:55:58;40.65;;;12.75;;
73515;SDS011;61763;51.416;5.442;2023-11-21T07:00:51;40.07;;;16.33;;
73515;SDS011;61763;51.416;5.442;2023-11-21T07:03:17;37.28;;;12.20;;
73515;SDS011;61763;51.416;5.442;2023-11-21T07:05:44;34.90;;;12.80;;
73515;SDS011;61763;51.416;5.442;2023-11-21T07:08:11;48.08;;;13.82;;
73515;SDS011;61763;51.416;5.442;2023-11-21T07:10:37;44.97;;;12.55;;
73515;SDS011;61763;51.416;5.442;2023-11-21T07:13:05;40.78;;;14.13;;
73515;SDS011;61763;51.416;5.442;2023-11-21T07:15:31;48.90;;;13.35;;
73515;SDS011;61763;51.416;5.442;2023-11-21T07:17:57;45.70;;;14.90;;
73515;SDS011;61763;51.416;5.442;2023-11-21T07:20:23;40.05;;;12.32;;
73515;SDS011;61763;51.416;5.442;2023-11-21T07:22:50;44.08;;;14.40;;
73515;SDS011;61763;51.416;5.442;2023-11-21T07:25:15;51.75;;;14.82;;
73515;SDS011;61763;51.416;5.442;2023-11-21T07:27:43;46.30;;;14.00;;
73515;SDS011;61763;51.416;5.442;2023-11-21T07:30:10;52.75;;;16.13;;
73515;SDS011;61763;51.416;5.442;2023-11-21T07:32:38;56.45;;;14.43;;
73515;SDS011;61763;51.416;5.442;2023-11-21T07:35:05;51.78;;;16.60;;
73515;SDS011;61763;51.416;5.442;2023-11-21T07:37:30;62.05;;;14.75;;
73515;SDS011;61763;51.416;5.442;2023-11-21T07:39:55;42.13;;;14.65;;
73515;SDS011;61763;51.416;5.442;2023-11-21T07:42:24;45.80;;;13.60;;
73515;SDS011;61763;51.416;5.442;2023-11-21T07:44:51;58.83;;;14.85;;
73515;SDS011;61763;51.416;5.442;2023-11-21T07:47:17;50.45;;;15.68;;
73515;SDS011;61763;51.416;5.442;2023-11-21T07:49:42;58.22;;;14.77;;
73515;SDS011;61763;51.416;5.442;2023-11-21T07:52:09;48.95;;;14.68;;
73515;SDS011;61763;51.416;5.442;2023-11-21T07:54:35;56.40;;;15.95;;
73515;SDS011;61763;51.416;5.442;2023-11-21T07:57:00;51.25;;;15.85;;
73515;SDS011;61763;51.416;5.442;2023-11-21T07:59:26;57.13;;;16.38;;
73515;SDS011;61763;51.416;5.442;2023-11-21T08:01:51;56.25;;;17.35;;
73515;SDS011;61763;51.416;5.442;2023-11-21T08:04:16;65.68;;;16.08;;
73515;SDS011;61763;51.416;5.442;2023-11-21T08:06:42;57.42;;;16.65;;
73515;SDS011;61763;51.416;5.442;2023-11-21T08:09:07;65.97;;;18.90;;
73515;SDS011;61763;51.416;5.442;2023-11-21T08:11:33;68.30;;;17.73;;
73515;SDS011;61763;51.416;5.442;2023-11-21T08:13:59;61.65;;;17.30;;
73515;SDS011;61763;51.416;5.442;2023-11-21T08:16:24;50.55;;;17.25;;
73515;SDS011;61763;51.416;5.442;2023-11-21T08:18:50;53.88;;;15.75;;
73515;SDS011;61763;51.416;5.442;2023-11-21T08:21:16;43.60;;;15.65;;
73515;SDS011;61763;51.416;5.442;2023-11-21T08:23:41;47.70;;;13.70;;
73515;SDS011;61763;51.416;5.442;2023-11-21T08:26:07;49.45;;;16.50;;
73515;SDS011;61763;51.416;5.442;2023-11-21T08:28:33;50.22;;;13.90;;
73515;SDS011;61763;51.416;5.442;2023-11-21T08:31:00;49.83;;;14.98;;
73515;SDS011;61763;51.416;5.442;2023-11-21T08:33:26;41.67;;;13.40;;
73515;SDS011;61763;51.416;5.442;2023-11-21T08:35:51;46.92;;;14.50;;
73515;SDS011;61763;51.416;5.442;2023-11-21T08:38:17;49.55;;;12.93;;
73515;SDS011;61763;51.416;5.442;2023-11-21T08:40:42;46.33;;;14.60;;
73515;SDS011;61763;51.416;5.442;2023-11-21T08:43:08;43.92;;;15.00;;
73515;SDS011;61763;51.416;5.442;2023-11-21T08:45:33;55.70;;;16.60;;
73515;SDS011;61763;51.416;5.442;2023-11-21T08:48:02;45.33;;;14.98;;
73515;SDS011;61763;51.416;5.442;2023-11-21T08:50:29;44.42;;;16.27;;
73515;SDS011;61763;51.416;5.442;2023-11-21T08:52:54;42.85;;;13.02;;
73515;SDS011;61763;51.416;5.442;2023-11-21T08:55:20;44.70;;;14.23;;
73515;SDS011;61763;51.416;5.442;2023-11-21T08:57:46;53.55;;;16.83;;
73515;SDS011;61763;51.416;5.442;2023-11-21T09:00:12;53.97;;;16.25;;
73515;SDS011;61763;51.416;5.442;2023-11-21T09:02:42;50.80;;;12.95;;
73515;SDS011;61763;51.416;5.442;2023-11-21T09:05:08;42.53;;;14.63;;
73515;SDS011;61763;51.416;5.442;2023-11-21T09:07:35;44.70;;;13.43;;
73515;SDS011;61763;51.416;5.442;2023-11-21T09:10:01;40.63;;;13.20;;
73515;SDS011;61763;51.416;5.442;2023-11-21T09:12:27;43.67;;;13.25;;
73515;SDS011;61763;51.416;5.442;2023-11-21T09:14:53;47.20;;;13.05;;
73515;SDS011;61763;51.416;5.442;2023-11-21T09:17:19;47.65;;;14.00;;
73515;SDS011;61763;51.416;5.442;2023-11-21T09:19:44;45.88;;;13.55;;
73515;SDS011;61763;51.416;5.442;2023-11-21T09:22:14;45.85;;;14.07;;
73515;SDS011;61763;51.416;5.442;2023-11-21T09:24:40;41.42;;;14.45;;
73515;SDS011;61763;51.416;5.442;2023-11-21T09:27:06;44.63;;;15.00;;
73515;SDS011;61763;51.416;5.442;2023-11-21T09:29:32;45.42;;;14.93;;
73515;SDS011;61763;51.416;5.442;2023-11-21T09:31:57;51.25;;;14.27;;
73515;SDS011;61763;51.416;5.442;2023-11-21T09:34:26;45.90;;;15.52;;
73515;SDS011;61763;51.416;5.442;2023-11-21T09:36:51;45.42;;;16.08;;
73515;SDS011;61763;51.416;5.442;2023-11-21T09:39:17;44.95;;;13.48;;
73515;SDS011;61763;51.416;5.442;2023-11-21T09:41:49;43.85;;;13.90;;
73515;SDS011;61763;51.416;5.442;2023-11-21T09:44:20;38.95;;;13.73;;
73515;SDS011;61763;51.416;5.442;2023-11-21T09:46:53;39.80;;;14.77;;
73515;SDS011;61763;51.416;5.442;2023-11-21T09:49:22;46.50;;;15.68;;
73515;SDS011;61763;51.416;5.442;2023-11-21T09:51:50;50.65;;;17.85;;
73515;SDS011;61763;51.416;5.442;2023-11-21T09:54:20;39.40;;;15.30;;
73515;SDS011;61763;51.416;5.442;2023-11-21T09:56:46;44.28;;;14.65;;
73515;SDS011;61763;51.416;5.442;2023-11-21T09:59:13;42.83;;;13.43;;
73515;SDS011;61763;51.416;5.442;2023-11-21T10:01:40;43.80;;;15.60;;
73515;SDS011;61763;51.416;5.442;2023-11-21T10:04:07;46.78;;;15.52;;
73515;SDS011;61763;51.416;5.442;2023-11-21T10:06:38;42.22;;;15.98;;
73515;SDS011;61763;51.416;5.442;2023-11-21T10:09:05;41.42;;;15.85;;
73515;SDS011;61763;51.416;5.442;2023-11-21T10:11:36;38.20;;;12.68;;
73515;SDS011;61763;51.416;5.442;2023-11-21T10:14:06;42.20;;;13.52;;
73515;SDS011;61763;51.416;5.442;2023-11-21T10:16:38;42.53;;;14.18;;
73515;SDS011;61763;51.416;5.442;2023-11-21T10:19:05;41.55;;;15.90;;
73515;SDS011;61763;51.416;5.442;2023-11-21T10:21:34;38.47;;;13.00;;
73515;SDS011;61763;51.416;5.442;2023-11-21T10:23:59;38.00;;;13.75;;
73515;SDS011;61763;51.416;5.442;2023-11-21T10:26:26;38.10;;;13.20;;
73515;SDS011;61763;51.416;5.442;2023-11-21T10:28:56;33.50;;;13.18;;
73515;SDS011;61763;51.416;5.442;2023-11-21T10:31:29;39.20;;;12.15;;
73515;SDS011;61763;51.416;5.442;2023-11-21T10:34:14;34.55;;;12.07;;
73515;SDS011;61763;51.416;5.442;2023-11-21T10:36:41;35.35;;;13.88;;
73515;SDS011;61763;51.416;5.442;2023-11-21T10:39:08;33.55;;;12.05;;
73515;SDS011;61763;51.416;5.442;2023-11-21T10:41:35;33.45;;;12.77;;
73515;SDS011;61763;51.416;5.442;2023-11-21T10:44:00;33.50;;;13.27;;
73515;SDS011;61763;51.416;5.442;2023-11-21T10:46:30;29.13;;;10.48;;
73515;SDS011;61763;51.416;5.442;2023-11-21T10:48:57;29.70;;;11.95;;
73515;SDS011;61763;51.416;5.442;2023-11-21T10:51:25;27.42;;;11.02;;
73515;SDS011;61763;51.416;5.442;2023-11-21T10:53:51;23.17;;;9.05;;
73515;SDS011;61763;51.416;5.442;2023-11-21T10:56:18;26.75;;;11.00;;
73515;SDS011;61763;51.416;5.442;2023-11-21T10:58:46;24.90;;;10.65;;
73515;SDS011;61763;51.416;5.442;2023-11-21T11:01:18;21.38;;;9.05;;
73515;SDS011;61763;51.416;5.442;2023-11-21T11:03:48;22.70;;;10.50;;
73515;SDS011;61763;51.416;5.442;2023-11-21T11:06:16;27.27;;;11.43;;
73515;SDS011;61763;51.416;5.442;2023-11-21T11:08:42;23.50;;;9.30;;
73515;SDS011;61763;51.416;5.442;2023-11-21T11:11:09;23.50;;;9.45;;
73515;SDS011;61763;51.416;5.442;2023-11-21T11:13:37;26.08;;;11.68;;
73515;SDS011;61763;51.416;5.442;2023-11-21T11:18:32;23.85;;;8.65;;
73515;SDS011;61763;51.416;5.442;2023-11-21T11:21:06;21.17;;;8.50;;
73515;SDS011;61763;51.416;5.442;2023-11-21T11:26:50;21.60;;;7.97;;
73515;SDS011;61763;51.416;5.442;2023-11-21T11:35:10;18.50;;;7.72;;
73515;SDS011;61763;51.416;5.442;2023-11-21T11:37:42;18.48;;;8.75;;
73515;SDS011;61763;51.416;5.442;2023-11-21T11:40:12;14.52;;;7.75;;
73515;SDS011;61763;51.416;5.442;2023-11-21T11:42:55;18.48;;;6.50;;
73515;SDS011;61763;51.416;5.442;2023-11-21T11:45:22;16.25;;;7.47;;
73515;SDS011;61763;51.416;5.442;2023-11-21T11:47:59;17.90;;;5.80;;
73515;SDS011;61763;51.416;5.442;2023-11-21T11:50:26;16.85;;;6.93;;
73515;SDS011;61763;51.416;5.442;2023-11-21T11:52:53;14.93;;;6.80;;
73515;SDS011;61763;51.416;5.442;2023-11-21T11:55:23;20.50;;;6.65;;
73515;SDS011;61763;51.416;5.442;2023-11-21T11:57:51;16.48;;;6.43;;
73515;SDS011;61763;51.416;5.442;2023-11-21T12:03:07;18.48;;;5.75;;
73515;SDS011;61763;51.416;5.442;2023-11-21T12:05:34;12.82;;;5.07;;
73515;SDS011;61763;51.416;5.442;2023-11-21T12:08:03;17.77;;;6.47;;
73515;SDS011;61763;51.416;5.442;2023-11-21T12:10:30;15.23;;;5.03;;
73515;SDS011;61763;51.416;5.442;2023-11-21T12:12:58;15.15;;;7.20;;
73515;SDS011;61763;51.416;5.442;2023-11-21T12:15:28;18.75;;;6.22;;
73515;SDS011;61763;51.416;5.442;2023-11-21T12:17:55;14.73;;;5.78;;
73515;SDS011;61763;51.416;5.442;2023-11-21T12:20:24;14.43;;;7.13;;
73515;SDS011;61763;51.416;5.442;2023-11-21T12:22:54;16.70;;;6.25;;
73515;SDS011;61763;51.416;5.442;2023-11-21T12:25:24;16.83;;;6.85;;
73515;SDS011;61763;51.416;5.442;2023-11-21T12:27:54;18.92;;;7.35;;
73515;SDS011;61763;51.416;5.442;2023-11-21T12:30:21;19.92;;;7.30;;
73515;SDS011;61763;51.416;5.442;2023-11-21T12:32:51;20.17;;;7.30;;
73515;SDS011;61763;51.416;5.442;2023-11-21T12:35:22;20.73;;;7.78;;
73515;SDS011;61763;51.416;5.442;2023-11-21T12:37:50;17.95;;;7.90;;
73515;SDS011;61763;51.416;5.442;2023-11-21T12:40:17;21.58;;;6.90;;
73515;SDS011;61763;51.416;5.442;2023-11-21T12:42:43;20.95;;;7.07;;
73515;SDS011;61763;51.416;5.442;2023-11-21T12:47:42;21.67;;;7.95;;
73515;SDS011;61763;51.416;5.442;2023-11-21T12:50:13;27.60;;;10.80;;
73515;SDS011;61763;51.416;5.442;2023-11-21T12:52:42;28.20;;;8.50;;
73515;SDS011;61763;51.416;5.442;2023-11-21T12:55:16;29.48;;;11.38;;
73515;SDS011;61763;51.416;5.442;2023-11-21T12:57:43;25.27;;;9.43;;
73515;SDS011;61763;51.416;5.442;2023-11-21T13:00:09;25.70;;;10.60;;
73515;SDS011;61763;51.416;5.442;2023-11-21T13:02:42;26.75;;;8.88;;
73515;SDS011;61763;51.416;5.442;2023-11-21T13:05:08;25.02;;;8.48;;
73515;SDS011;61763;51.416;5.442;2023-11-21T13:07:43;24.48;;;9.85;;
73515;SDS011;61763;51.416;5.442;2023-11-21T13:10:12;26.08;;;11.35;;
73515;SDS011;61763;51.416;5.442;2023-11-21T13:12:42;22.73;;;9.05;;
73515;SDS011;61763;51.416;5.442;2023-11-21T13:15:13;28.00;;;9.15;;
73515;SDS011;61763;51.416;5.442;2023-11-21T13:17:39;26.48;;;9.50;;
73515;SDS011;61763;51.416;5.442;2023-11-21T13:20:05;21.08;;;9.48;;
73515;SDS011;61763;51.416;5.442;2023-11-21T13:22:33;22.25;;;9.15;;
73515;SDS011;61763;51.416;5.442;2023-11-21T13:25:00;21.38;;;9.63;;
73515;SDS011;61763;51.416;5.442;2023-11-21T13:27:32;25.67;;;11.13;;
73515;SDS011;61763;51.416;5.442;2023-11-21T13:29:59;26.85;;;10.30;;
73515;SDS011;61763;51.416;5.442;2023-11-21T13:32:24;23.90;;;8.90;;
73515;SDS011;61763;51.416;5.442;2023-11-21T13:34:50;25.13;;;10.20;;
73515;SDS011;61763;51.416;5.442;2023-11-21T13:37:19;23.27;;;10.05;;
73515;SDS011;61763;51.416;5.442;2023-11-21T13:39:44;24.42;;;9.73;;
73515;SDS011;61763;51.416;5.442;2023-11-21T13:42:14;27.48;;;9.07;;
73515;SDS011;61763;51.416;5.442;2023-11-21T13:44:41;24.20;;;7.95;;
73515;SDS011;61763;51.416;5.442;2023-11-21T13:47:11;23.30;;;8.90;;
73515;SDS011;61763;51.416;5.442;2023-11-21T13:49:37;27.90;;;8.52;;
73515;SDS011;61763;51.416;5.442;2023-11-21T13:52:06;26.65;;;8.93;;
73515;SDS011;61763;51.416;5.442;2023-11-21T13:54:32;24.25;;;9.88;;
73515;SDS011;61763;51.416;5.442;2023-11-21T13:56:58;23.52;;;8.35;;
73515;SDS011;61763;51.416;5.442;2023-11-21T13:59:25;24.23;;;9.25;;
73515;SDS011;61763;51.416;5.442;2023-11-21T14:01:53;26.00;;;8.98;;
73515;SDS011;61763;51.416;5.442;2023-11-21T14:04:23;25.58;;;9.35;;
73515;SDS011;61763;51.416;5.442;2023-11-21T14:06:57;22.83;;;8.55;;
73515;SDS011;61763;51.416;5.442;2023-11-21T14:09:25;19.95;;;7.68;;
73515;SDS011;61763;51.416;5.442;2023-11-21T14:11:57;23.02;;;9.15;;
73515;SDS011;61763;51.416;5.442;2023-11-21T14:14:25;25.85;;;9.02;;
73515;SDS011;61763;51.416;5.442;2023-11-21T14:16:53;23.20;;;9.23;;
73515;SDS011;61763;51.416;5.442;2023-11-21T14:19:20;22.95;;;10.65;;
73515;SDS011;61763;51.416;5.442;2023-11-21T14:21:47;23.73;;;8.95;;
73515;SDS011;61763;51.416;5.442;2023-11-21T14:24:15;23.55;;;9.20;;
73515;SDS011;61763;51.416;5.442;2023-11-21T14:26:44;26.98;;;9.43;;
73515;SDS011;61763;51.416;5.442;2023-11-21T14:29:11;23.17;;;10.55;;
73515;SDS011;61763;51.416;5.442;2023-11-21T14:31:39;30.00;;;10.90;;
73515;SDS011;61763;51.416;5.442;2023-11-21T14:34:07;23.95;;;8.85;;
73515;SDS011;61763;51.416;5.442;2023-11-21T14:36:34;27.48;;;8.40;;
73515;SDS011;61763;51.416;5.442;2023-11-21T14:39:02;27.17;;;8.75;;
73515;SDS011;61763;51.416;5.442;2023-11-21T14:41:32;24.42;;;9.13;;
73515;SDS011;61763;51.416;5.442;2023-11-21T14:44:00;24.10;;;8.40;;
73515;SDS011;61763;51.416;5.442;2023-11-21T14:46:27;23.50;;;9.10;;
73515;SDS011;61763;51.416;5.442;2023-11-21T14:48:53;18.88;;;7.35;;
73515;SDS011;61763;51.416;5.442;2023-11-21T14:51:25;25.10;;;8.65;;